Time;durP1;ratioP1;P1;durP2;ratioP2;P2;SDS_P1;SDS_P2;PMS_P1;PMS_P2;Temp;Humidity;BMP_temperature;BMP_pressure;BME280_temperature;BME280_humidity;BME280_pressure;Samples;Min_cycle;Max_cycle;Signal;HPM_P1;HPM_P2
2022/05/19 00:02:08;;;;;;;11.20;4.60;;;;;;;10.38;70.17;99355.12;25094;1316;3054730;-65
2022/05/19 00:04:38;;;;;;;8.40;4.60;;;;;;;10.30;70.64;99354.37;25062;1315;3029096;-62
2022/05/19 00:07:08;;;;;;;9.00;4.30;;;;;;;10.21;70.91;99358.04;25171;1316;3029449;-65
2022/05/19 00:09:40;;;;;;;7.70;3.10;;;;;;;10.17;71.86;99359.19;25104;1316;3026980;-63
2022/05/19 00:12:12;;;;;;;8.60;3.20;;;;;;;10.76;70.98;99361.20;25095;1316;3026824;-65
2022/05/19 00:14:42;;;;;;;8.60;3.20;;;;;;;11.21;69.21;99356.08;25119;1315;3055157;-63
2022/05/19 00:17:12;;;;;;;8.00;3.00;;;;;;;11.09;69.65;99368.54;25066;1316;3028171;-64
2022/05/19 00:19:41;;;;;;;7.70;3.00;;;;;;;10.92;70.59;99370.36;25073;1315;3026465;-64
2022/05/19 00:22:11;;;;;;;5.90;3.10;;;;;;;10.77;71.59;99375.48;25091;1315;3026795;-64
2022/05/19 00:24:40;;;;;;;7.70;3.20;;;;;;;10.60;72.70;99381.45;25086;1316;3048753;-62
2022/05/19 00:27:09;;;;;;;6.20;2.50;;;;;;;10.40;74.83;99373.60;25070;1315;3027188;-64
2022/05/19 00:29:39;;;;;;;7.40;2.80;;;;;;;10.90;73.89;99370.81;25106;1316;3057826;-62
2022/05/19 00:32:08;;;;;;;9.40;4.20;;;;;;;11.32;72.06;99365.36;25055;1313;3026478;-64
2022/05/19 00:34:38;;;;;;;16.80;7.60;;;;;;;11.05;72.72;99374.05;25080;1313;3028639;-65
2022/05/19 00:37:07;;;;;;;20.30;7.90;;;;;;;10.81;73.74;99376.99;25102;1313;3026488;-63
2022/05/19 00:39:36;;;;;;;19.50;8.60;;;;;;;10.67;74.03;99366.99;25090;1313;3052336;-64
2022/05/19 00:45:01;;;;;;;20.20;8.40;;;;;;;10.43;75.39;99373.37;25076;1315;3058863;-63
2022/05/19 00:47:37;;;;;;;22.20;11.00;;;;;;;10.91;74.51;99377.41;25050;1315;3026528;-64
2022/05/19 00:50:36;;;;;;;23.60;10.60;;;;;;;11.03;73.87;99377.55;25088;1316;3056103;-65
2022/05/19 00:53:12;;;;;;;20.90;9.90;;;;;;;10.96;73.74;99378.35;25074;1313;3051611;-64
2022/05/19 00:55:45;;;;;;;19.80;8.70;;;;;;;10.77;74.20;99372.89;25068;1316;3071699;-64
2022/05/19 00:58:31;;;;;;;13.70;7.30;;;;;;;10.64;74.66;99374.54;25134;1313;3049765;-63
2022/05/19 01:01:00;;;;;;;9.50;5.30;;;;;;;10.41;76.52;99381.52;25117;1313;3054853;-64
2022/05/19 01:03:35;;;;;;;11.00;4.30;;;;;;;10.91;75.06;99382.88;25122;1313;3026425;-63
2022/05/19 01:06:09;;;;;;;7.50;4.10;;;;;;;10.99;74.36;99385.33;25116;1316;3056351;-67
2022/05/19 01:08:58;;;;;;;9.70;5.10;;;;;;;11.03;74.27;99380.67;25054;1315;3051717;-65
2022/05/19 01:11:27;;;;;;;15.20;6.20;;;;;;;10.75;75.57;99386.65;25033;1316;3054300;-64
2022/05/19 01:13:57;;;;;;;13.80;6.30;;;;;;;10.60;76.48;99390.06;25139;1315;3026540;-65
2022/05/19 01:16:26;;;;;;;14.00;5.50;;;;;;;10.63;76.41;99384.80;25103;1315;3052956;-63
2022/05/19 01:18:56;;;;;;;13.40;5.00;;;;;;;11.05;75.70;99386.31;25087;1316;3026871;-63
2022/05/19 01:21:27;;;;;;;12.00;4.90;;;;;;;11.22;74.45;99388.75;25109;1316;3026838;-65
2022/05/19 01:24:05;;;;;;;9.60;4.00;;;;;;;11.37;73.49;99383.56;25111;1315;3026789;-62
2022/05/19 01:26:42;;;;;;;7.50;4.30;;;;;;;11.13;74.18;99390.17;25096;1316;3052270;-65
2022/05/19 01:29:12;;;;;;;10.70;4.30;;;;;;;11.03;74.53;99389.65;25110;1316;3052030;-64
2022/05/19 01:31:52;;;;;;;7.90;3.20;;;;;;;10.84;75.68;99392.23;25101;1315;3026350;-63
2022/05/19 01:34:24;;;;;;;7.20;3.90;;;;;;;11.32;74.85;99389.86;25114;1315;3058793;-64
2022/05/19 01:36:54;;;;;;;11.50;5.30;;;;;;;11.80;72.95;99385.86;25095;1315;3026590;-64
2022/05/19 01:39:30;;;;;;;12.50;5.30;;;;;;;11.43;73.60;99386.72;25153;1315;3051235;-64
2022/05/19 01:42:18;;;;;;;10.80;6.40;;;;;;;11.27;73.94;99389.11;25094;1315;3025960;-65
2022/05/19 01:45:13;;;;;;;21.60;9.10;;;;;;;10.85;75.69;99395.52;25054;1316;3071757;-64
2022/05/19 01:47:51;;;;;;;17.80;6.70;;;;;;;10.89;76.05;99396.33;24965;1316;3051612;-63
2022/05/19 01:50:35;;;;;;;20.80;8.00;;;;;;;11.45;74.44;99394.15;25046;1316;3054907;-64
2022/05/19 01:53:22;;;;;;;14.20;7.00;;;;;;;11.50;73.99;99391.88;25099;1313;3055594;-63
2022/05/19 01:55:57;;;;;;;13.90;6.20;;;;;;;11.29;74.28;99397.27;25120;1313;3058585;-64
2022/05/19 01:58:46;;;;;;;8.90;4.70;;;;;;;11.05;75.01;99394.73;25149;1313;3052368;-64
2022/05/19 02:01:17;;;;;;;12.90;5.30;;;;;;;10.96;75.24;99400.05;25088;1313;3053199;-63
2022/05/19 02:04:05;;;;;;;10.30;3.30;;;;;;;10.74;76.51;99399.68;25101;1315;3028223;-63
2022/05/19 02:06:46;;;;;;;11.10;5.90;;;;;;;11.11;75.66;99399.29;25092;1313;3071584;-64
2022/05/19 02:09:23;;;;;;;12.50;6.20;;;;;;;11.33;74.70;99396.66;25110;1313;3052078;-65
2022/05/19 02:11:57;;;;;;;8.80;5.30;;;;;;;11.23;74.60;99398.14;25132;1313;3054795;-66
2022/05/19 02:14:32;;;;;;;10.70;5.90;;;;;;;11.01;75.26;99395.58;25046;1313;3051662;-64
2022/05/19 02:17:03;;;;;;;8.80;4.80;;;;;;;10.80;76.20;99403.30;25181;1313;3058679;-63
2022/05/19 02:19:46;;;;;;;7.70;3.50;;;;;;;10.73;76.50;99398.49;25091;1313;3049189;-64
2022/05/19 02:22:17;;;;;;;8.20;3.90;;;;;;;11.13;75.88;99399.70;25114;1313;3053409;-65
2022/05/19 02:24:59;;;;;;;10.80;4.40;;;;;;;11.32;74.66;99400.41;25108;1313;3026817;-64
2022/05/19 02:27:49;;;;;;;11.40;5.40;;;;;;;11.16;75.07;99402.11;25137;1316;3069839;-63
2022/05/19 02:30:23;;;;;;;10.80;4.90;;;;;;;10.96;75.37;99410.06;25125;1315;3051597;-64
2022/05/19 02:32:53;;;;;;;8.80;4.30;;;;;;;10.71;76.73;99414.20;25095;1316;3054743;-65
2022/05/19 02:35:22;;;;;;;11.40;3.90;;;;;;;10.63;77.95;99417.17;25144;1315;3026504;-62
2022/05/19 02:37:52;;;;;;;6.10;3.40;;;;;;;11.11;76.98;99416.62;25094;1313;3026147;-64
2022/05/19 02:40:22;;;;;;;10.30;4.30;;;;;;;11.48;74.82;99413.23;25110;1313;3026506;-65
2022/05/19 02:42:51;;;;;;;7.80;4.80;;;;;;;11.35;74.80;99423.02;25108;1313;3026616;-64
2022/05/19 02:45:21;;;;;;;9.10;3.90;;;;;;;11.08;75.63;99427.70;25105;1313;3026611;-64
2022/05/19 02:47:50;;;;;;;9.90;3.30;;;;;;;10.87;76.09;99423.75;25107;1313;3026368;-64
2022/05/19 02:50:20;;;;;;;7.10;2.90;;;;;;;10.72;76.80;99427.46;25098;1313;3026874;-65
2022/05/19 02:52:49;;;;;;;5.00;2.90;;;;;;;11.16;75.59;99430.90;25070;1316;3026994;-65
2022/05/19 02:55:20;;;;;;;7.20;2.90;;;;;;;11.31;74.18;99427.67;25125;1313;3028817;-65
2022/05/19 02:57:49;;;;;;;5.70;2.90;;;;;;;11.25;74.40;99429.92;25194;1313;3026865;-64
2022/05/19 03:00:22;;;;;;;6.00;3.10;;;;;;;11.17;74.54;99432.70;25102;1315;3028643;-64
2022/05/19 03:02:53;;;;;;;5.60;3.20;;;;;;;10.85;75.31;99443.84;25126;1313;3026822;-64
2022/05/19 03:05:23;;;;;;;7.10;3.20;;;;;;;10.68;76.44;99453.65;25180;1313;3026787;-65
2022/05/19 03:07:53;;;;;;;5.10;2.60;;;;;;;10.70;76.97;99454.59;25142;1313;3026447;-64
2022/05/19 03:10:22;;;;;;;7.40;2.80;;;;;;;11.13;75.34;99452.42;25170;1313;3026605;-64
2022/05/19 03:12:51;;;;;;;8.00;2.80;;;;;;;11.37;73.69;99454.77;25088;1313;3050595;-64
2022/05/19 03:15:20;;;;;;;12.10;2.80;;;;;;;11.33;73.90;99454.34;25048;1313;3026802;-65
2022/05/19 03:17:49;;;;;;;7.90;2.90;;;;;;;11.24;73.92;99455.09;25140;1313;3026514;-65
2022/05/19 03:20:20;;;;;;;8.20;3.50;;;;;;;10.95;74.38;99462.48;25085;1313;3050799;-64
2022/05/19 03:22:49;;;;;;;6.20;3.00;;;;;;;10.85;74.64;99459.46;25132;1313;3030507;-64
2022/05/19 03:25:18;;;;;;;6.30;1.90;;;;;;;10.69;75.39;99463.38;25131;1313;3026124;-64
2022/05/19 03:27:48;;;;;;;5.90;2.30;;;;;;;11.29;74.05;99459.67;25167;1316;3053649;-64
2022/05/19 03:30:17;;;;;;;3.80;2.30;;;;;;;11.48;72.33;99463.74;25077;1315;3026579;-64
2022/05/19 03:32:46;;;;;;;4.70;2.40;;;;;;;11.32;72.76;99462.83;25112;1316;3054261;-63
2022/05/19 03:35:16;;;;;;;3.10;2.30;;;;;;;11.23;72.83;99471.14;25082;1316;3026567;-65
2022/05/19 03:37:45;;;;;;;7.90;3.60;;;;;;;11.08;73.27;99468.01;25064;1318;3051443;-65
2022/05/19 03:40:16;;;;;;;7.50;3.20;;;;;;;10.94;74.14;99468.56;25103;1316;3026434;-64
2022/05/19 03:42:45;;;;;;;3.70;2.40;;;;;;;10.83;74.34;99466.22;25106;1312;3056154;-64
2022/05/19 03:45:15;;;;;;;4.10;2.20;;;;;;;11.26;73.26;99470.76;25133;1313;3028968;-65
2022/05/19 03:47:44;;;;;;;8.40;2.70;;;;;;;11.53;72.00;99473.60;25064;1313;3029793;-65
2022/05/19 03:50:13;;;;;;;5.10;2.70;;;;;;;11.49;71.70;99469.66;25098;1313;3058711;-64
2022/05/19 03:52:42;;;;;;;7.70;3.30;;;;;;;11.34;71.95;99474.27;25098;1312;3026372;-65
2022/05/19 03:55:12;;;;;;;5.40;3.30;;;;;;;11.23;72.72;99477.80;25076;1313;3052225;-64
2022/05/19 03:57:42;;;;;;;4.30;3.10;;;;;;;11.05;72.92;99474.00;25132;1315;3028415;-65
2022/05/19 04:00:12;;;;;;;7.30;3.20;;;;;;;10.89;73.62;99478.10;25109;1316;3026336;-64
2022/05/19 04:02:45;;;;;;;2.90;2.20;;;;;;;10.92;73.82;99475.69;25114;1313;3055481;-64
2022/05/19 04:05:14;;;;;;;4.80;2.60;;;;;;;11.38;72.28;99475.92;25115;1313;3026705;-64
2022/05/19 04:07:43;;;;;;;5.00;2.80;;;;;;;11.66;70.87;99474.15;25150;1313;3026363;-65
2022/05/19 04:10:12;;;;;;;5.80;3.00;;;;;;;11.70;70.43;99474.79;25125;1313;3051970;-64
2022/05/19 04:12:43;;;;;;;5.80;3.20;;;;;;;11.48;70.93;99478.45;25154;1313;3026129;-65
2022/05/19 04:15:12;;;;;;;6.80;3.30;;;;;;;11.42;71.42;99477.48;25156;1313;3054680;-64
2022/05/19 04:17:41;;;;;;;7.40;3.50;;;;;;;11.31;71.82;99488.31;25143;1313;3026812;-64
2022/05/19 04:20:11;;;;;;;8.20;3.40;;;;;;;11.18;71.96;99492.62;25127;1312;3026169;-65
2022/05/19 04:22:40;;;;;;;3.90;2.30;;;;;;;11.10;72.52;99494.21;25131;1313;3052711;-65
2022/05/19 04:25:10;;;;;;;3.70;2.90;;;;;;;11.58;71.07;99491.86;25119;1313;3026358;-65
2022/05/19 04:27:39;;;;;;;6.00;3.20;;;;;;;11.92;69.78;99495.80;25137;1313;3049929;-64
2022/05/19 04:30:08;;;;;;;5.20;2.90;;;;;;;11.96;69.26;99496.77;25192;1313;3026487;-64
2022/05/19 04:32:38;;;;;;;8.00;3.30;;;;;;;11.82;69.73;99495.79;25163;1313;3068378;-66
2022/05/19 04:35:07;;;;;;;5.10;2.90;;;;;;;11.58;70.57;99497.46;25115;1312;3026267;-64
2022/05/19 04:37:37;;;;;;;7.30;3.40;;;;;;;11.50;70.45;99499.56;25148;1312;3051820;-64
2022/05/19 04:40:06;;;;;;;11.60;3.70;;;;;;;11.32;71.32;99502.46;25172;1313;3028342;-65
2022/05/19 04:42:36;;;;;;;6.10;3.20;;;;;;;11.27;71.79;99502.59;25203;1313;3053262;-65
2022/05/19 04:45:06;;;;;;;8.60;2.60;;;;;;;11.28;71.94;99502.36;25125;1313;3026695;-66
2022/05/19 04:47:39;;;;;;;;;;;;;;;11.87;70.03;99504.95;25103;1313;3072407;-63
2022/05/19 04:50:09;;;;;;;5.30;3.30;;;;;;;12.20;68.87;99498.56;25144;1313;3028450;-65
2022/05/19 04:52:39;;;;;;;4.50;2.50;;;;;;;12.13;68.05;99506.90;25120;1313;3027305;-63
2022/05/19 04:55:09;;;;;;;6.70;3.30;;;;;;;11.95;69.06;99512.82;25095;1313;3026590;-64
2022/05/19 04:57:41;;;;;;;7.60;3.00;;;;;;;11.82;69.65;99513.63;25109;1313;3051884;-65
2022/05/19 05:00:12;;;;;;;10.10;3.30;;;;;;;11.82;69.93;99511.05;25104;1316;3027151;-63
2022/05/19 05:02:42;;;;;;;8.20;3.50;;;;;;;11.79;69.57;99510.84;25167;1312;3026463;-66
2022/05/19 05:05:12;;;;;;;6.00;3.50;;;;;;;11.63;70.26;99507.69;25183;1313;3027113;-66
2022/05/19 05:07:41;;;;;;;10.40;3.50;;;;;;;11.64;69.54;99516.73;25136;1313;3026937;-64
2022/05/19 05:10:10;;;;;;;6.40;2.70;;;;;;;12.21;67.42;99509.40;25169;1313;3051343;-65
2022/05/19 05:12:39;;;;;;;6.20;3.40;;;;;;;12.69;65.75;99510.70;25152;1313;3026649;-65
2022/05/19 05:15:09;;;;;;;7.10;3.50;;;;;;;12.58;65.33;99513.91;25190;1313;3026965;-66
2022/05/19 05:17:38;;;;;;;5.80;3.80;;;;;;;12.45;65.87;99512.17;25158;1313;3053131;-64
2022/05/19 05:20:11;;;;;;;7.20;3.30;;;;;;;12.49;65.73;99512.63;25166;1313;3026690;-65
2022/05/19 05:22:40;;;;;;;8.60;3.90;;;;;;;12.30;65.90;99516.35;25195;1313;3028690;-65
2022/05/19 05:25:12;;;;;;;9.30;3.90;;;;;;;12.24;66.65;99516.90;25215;1313;3029849;-64
2022/05/19 05:27:42;;;;;;;7.00;4.40;;;;;;;12.31;66.99;99517.84;25155;1313;3027980;-64
2022/05/19 05:30:12;;;;;;;12.30;4.00;;;;;;;12.17;67.58;99528.98;25112;1313;3029885;-65
2022/05/19 05:32:41;;;;;;;10.10;3.90;;;;;;;12.13;68.05;99531.32;25120;1313;3026822;-65
2022/05/19 05:35:10;;;;;;;7.40;3.20;;;;;;;12.11;67.83;99534.27;25159;1313;3027085;-65
2022/05/19 05:37:39;;;;;;;8.00;3.00;;;;;;;12.52;66.87;99526.27;25129;1313;3067827;-65
2022/05/19 05:40:10;;;;;;;9.90;3.70;;;;;;;12.97;65.52;99527.09;25161;1313;3026950;-65
2022/05/19 05:42:40;;;;;;;5.60;2.80;;;;;;;13.03;64.49;99526.87;25191;1315;3050307;-63
2022/05/19 05:45:09;;;;;;;8.30;3.70;;;;;;;13.04;64.23;99529.56;25176;1313;3026363;-65
2022/05/19 05:47:39;;;;;;;6.50;3.50;;;;;;;12.82;64.78;99534.97;25187;1313;3026726;-64
2022/05/19 05:50:11;;;;;;;12.50;4.10;;;;;;;12.80;65.45;99531.55;25112;1313;3029981;-64
2022/05/19 05:52:41;;;;;;;7.10;3.80;;;;;;;12.75;65.15;99537.23;25122;1316;3026986;-64
2022/05/19 05:55:10;;;;;;;8.40;3.70;;;;;;;12.67;65.01;99534.61;25164;1313;3030180;-64
2022/05/19 05:57:39;;;;;;;6.30;4.20;;;;;;;12.66;64.97;99535.34;25177;1313;3051733;-65
2022/05/19 06:00:10;;;;;;;10.40;3.80;;;;;;;12.72;64.83;99537.95;25162;1314;3026892;-64
2022/05/19 06:02:42;;;;;;;9.30;4.40;;;;;;;12.79;64.53;99535.36;25202;1315;3049034;-65
2022/05/19 06:05:12;;;;;;;7.90;3.90;;;;;;;12.85;63.96;99542.34;25200;1313;3026792;-64
2022/05/19 06:07:42;;;;;;;9.50;4.00;;;;;;;12.85;63.39;99545.86;25164;1316;3027805;-65
2022/05/19 06:10:11;;;;;;;10.80;3.80;;;;;;;12.96;63.63;99542.81;25115;1313;3028112;-65
2022/05/19 06:12:41;;;;;;;6.60;3.60;;;;;;;13.05;63.88;99537.45;25141;1313;3054271;-64
2022/05/19 06:15:12;;;;;;;8.80;3.70;;;;;;;13.20;63.38;99541.48;25202;1313;3026697;-64
2022/05/19 06:17:42;;;;;;;10.40;3.60;;;;;;;13.25;62.36;99542.02;25116;1313;3029025;-64
2022/05/19 06:20:15;;;;;;;8.50;3.60;;;;;;;13.34;62.04;99538.05;25165;1313;3026786;-64
2022/05/19 06:22:46;;;;;;;15.20;4.10;;;;;;;13.31;61.80;99541.39;25124;1313;3027353;-65
2022/05/19 06:25:18;;;;;;;8.60;3.90;;;;;;;13.45;62.51;99541.53;25158;1313;3026581;-64
2022/05/19 06:27:50;;;;;;;13.80;4.10;;;;;;;13.61;62.70;99540.73;25150;1313;3027102;-65
2022/05/19 06:30:22;;;;;;;9.60;3.70;;;;;;;13.75;62.30;99543.23;25221;1313;3050342;-64
2022/05/19 06:32:52;;;;;;;10.10;4.30;;;;;;;13.73;61.45;99544.98;25178;1313;3026574;-64
2022/05/19 06:35:27;;;;;;;6.80;3.70;;;;;;;13.77;62.03;99551.23;25142;1313;3026944;-64
2022/05/19 06:37:57;;;;;;;5.80;3.70;;;;;;;13.91;61.99;99541.17;25150;1313;3049505;-63
2022/05/19 06:40:27;;;;;;;12.10;3.90;;;;;;;14.05;59.32;99538.09;25150;1313;3026404;-66
2022/05/19 06:42:57;;;;;;;9.70;2.80;;;;;;;14.21;56.83;99537.77;25160;1313;3026577;-64
2022/05/19 06:45:27;;;;;;;5.70;2.90;;;;;;;14.32;54.76;99541.74;25110;1313;3027068;-65
2022/05/19 06:47:57;;;;;;;7.00;3.20;;;;;;;14.44;53.80;99542.41;25134;1316;3026921;-65
2022/05/19 06:50:26;;;;;;;7.60;3.10;;;;;;;14.44;54.35;99540.63;24781;1313;3520141;-64
2022/05/19 06:53:00;;;;;;;6.00;3.20;;;;;;;14.65;54.00;99539.91;25122;1313;3026358;-64
2022/05/19 06:55:34;;;;;;;6.10;3.30;;;;;;;14.86;54.02;99543.50;25088;1313;3051581;-63
2022/05/19 06:58:05;;;;;;;5.90;2.80;;;;;;;14.87;52.92;99547.11;25171;1313;3051819;-65
2022/05/19 07:00:34;;;;;;;8.60;3.00;;;;;;;14.98;52.30;99543.04;25187;1313;3026906;-65
2022/05/19 07:03:04;;;;;;;6.80;2.40;;;;;;;15.13;52.05;99540.71;25142;1313;3027271;-64
2022/05/19 07:05:36;;;;;;;6.80;2.20;;;;;;;15.28;50.15;99541.30;25126;1313;3026587;-65
2022/05/19 07:08:06;;;;;;;7.30;2.70;;;;;;;15.48;50.42;99546.35;25150;1313;3026387;-65
2022/05/19 07:10:36;;;;;;;5.20;2.50;;;;;;;15.56;49.99;99549.42;25159;1315;3027602;-63
2022/05/19 07:13:06;;;;;;;6.30;2.40;;;;;;;15.53;49.62;99548.10;25107;1313;3028692;-64
2022/05/19 07:15:36;;;;;;;6.60;2.30;;;;;;;15.62;50.00;99548.05;25128;1313;3027932;-64
2022/05/19 07:18:08;;;;;;;6.00;2.90;;;;;;;15.80;50.25;99546.66;25095;1313;3026847;-65
2022/05/19 07:20:44;;;;;;;7.60;2.90;;;;;;;15.93;50.55;99550.94;25164;1313;3054536;-63
2022/05/19 07:23:20;;;;;;;12.10;2.40;;;;;;;15.88;47.74;99553.61;25136;1313;3069301;-64
2022/05/19 07:25:50;;;;;;;7.80;2.20;;;;;;;15.95;46.59;99550.08;25101;1312;3052639;-64
2022/05/19 07:28:20;;;;;;;4.40;2.20;;;;;;;16.02;46.20;99547.58;25179;1313;3026797;-64
2022/05/19 07:30:50;;;;;;;4.30;1.90;;;;;;;16.15;45.96;99552.67;25148;1313;3026460;-64
2022/05/19 07:33:19;;;;;;;9.60;2.30;;;;;;;16.20;45.83;99548.72;25111;1313;3027061;-64
2022/05/19 07:35:51;;;;;;;11.60;2.10;;;;;;;16.26;46.00;99545.02;25162;1313;3026702;-63
2022/05/19 07:38:20;;;;;;;4.40;1.90;;;;;;;16.30;44.04;99549.64;25132;1313;3026779;-65
2022/05/19 07:40:54;;;;;;;5.70;2.10;;;;;;;16.22;44.16;99547.33;25101;1313;3027097;-64
2022/05/19 07:43:36;;;;;;;4.60;1.80;;;;;;;16.09;45.00;99556.91;25162;1313;3049042;-64
2022/05/19 07:46:06;;;;;;;6.50;2.20;;;;;;;16.18;43.92;99550.30;25147;1312;3055575;-63
2022/05/19 07:48:35;;;;;;;9.90;2.30;;;;;;;16.25;42.58;99553.98;25244;1313;3026623;-64
2022/05/19 07:51:06;;;;;;;11.40;2.80;;;;;;;16.24;41.81;99550.71;25182;1313;3026378;-64
2022/05/19 07:53:36;;;;;;;11.80;3.20;;;;;;;16.22;41.24;99548.73;25137;1313;3027769;-64
2022/05/19 07:56:06;;;;;;;6.10;2.40;;;;;;;16.26;41.09;99551.92;25072;1313;3026454;-66
2022/05/19 07:58:36;;;;;;;6.90;2.10;;;;;;;16.39;41.52;99545.02;25119;1313;3030641;-64
2022/05/19 08:01:07;;;;;;;3.50;1.60;;;;;;;16.53;41.67;99542.63;25126;1313;3029348;-63
2022/05/19 08:03:37;;;;;;;8.80;2.10;;;;;;;16.35;42.49;99554.89;25145;1313;3026669;-64
2022/05/19 08:06:09;;;;;;;4.30;1.40;;;;;;;16.36;41.35;99548.63;25127;1313;3026526;-65
2022/05/19 08:08:39;;;;;;;6.20;1.40;;;;;;;16.41;38.83;99544.73;25152;1313;3026479;-64
2022/05/19 08:11:08;;;;;;;7.80;1.30;;;;;;;16.65;38.89;99530.29;25093;1315;3027964;-64
2022/05/19 08:16:26;;;;;;;9.90;1.50;;;;;;;16.40;37.51;99541.73;25097;1315;3055054;-64
2022/05/19 08:18:56;;;;;;;9.10;1.10;;;;;;;16.26;37.13;99546.66;25116;1313;3027141;-64
2022/05/19 08:21:25;;;;;;;5.60;1.40;;;;;;;16.45;37.68;99540.84;25155;1313;3026617;-64
2022/05/19 08:23:54;;;;;;;4.40;1.40;;;;;;;16.39;38.22;99553.50;25180;1312;3054303;-64
2022/05/19 08:26:23;;;;;;;4.50;1.30;;;;;;;16.38;38.28;99544.94;25159;1313;3027326;-64
2022/05/19 08:28:52;;;;;;;5.00;1.20;;;;;;;16.30;38.37;99540.11;25138;1312;3049087;-65
2022/05/19 08:31:23;;;;;;;7.30;1.50;;;;;;;16.45;38.54;99540.45;25178;1313;3026636;-65
2022/05/19 08:33:54;;;;;;;9.70;1.80;;;;;;;16.46;38.51;99541.80;25189;1313;3029110;-64
2022/05/19 08:36:26;;;;;;;10.50;1.70;;;;;;;16.54;38.13;99549.98;25161;1313;3026400;-64
2022/05/19 08:38:56;;;;;;;2.40;1.50;;;;;;;16.63;38.22;99548.73;25126;1313;3026860;-64
2022/05/19 08:41:28;;;;;;;5.90;1.80;;;;;;;16.51;38.05;99544.02;25084;1315;3027043;-65
2022/05/19 08:44:20;;;;;;;7.70;1.70;;;;;;;16.39;37.97;99543.27;25146;1313;3027772;-64
2022/05/19 08:46:51;;;;;;;4.10;1.20;;;;;;;16.40;38.38;99543.91;25095;1313;3067426;-65
2022/05/19 08:49:42;;;;;;;4.40;1.40;;;;;;;16.35;38.75;99538.80;25140;1313;3027566;-64
2022/05/19 08:52:16;;;;;;;3.20;1.90;;;;;;;16.43;38.41;99535.30;25135;1313;3052751;-64
2022/05/19 08:54:47;;;;;;;;;;;;;;;16.52;38.44;99535.48;25094;1313;3053270;-64
2022/05/19 08:57:18;;;;;;;4.10;1.20;;;;;;;16.61;37.81;99536.45;25201;1312;3026318;-65
2022/05/19 08:59:56;;;;;;;;;;;;;;;16.96;37.07;99536.05;25046;1313;3051411;-64
2022/05/19 09:03:06;;;;;;;5.00;1.40;;;;;;;17.13;36.41;99528.33;25159;1313;3055614;-65
2022/05/19 09:06:06;;;;;;;12.30;2.00;;;;;;;17.51;35.83;99528.54;25129;1313;3054200;-64
2022/05/19 09:08:49;;;;;;;4.00;1.70;;;;;;;17.56;34.90;99527.40;25166;1313;3071404;-64
2022/05/19 09:11:21;;;;;;;5.20;1.30;;;;;;;17.55;35.23;99524.70;25116;1312;3030170;-63
2022/05/19 09:13:58;;;;;;;6.50;1.50;;;;;;;17.48;34.08;99521.98;25156;1313;3026429;-63
2022/05/19 09:16:35;;;;;;;6.50;1.50;;;;;;;17.25;33.84;99522.69;25102;1313;3055523;-64
2022/05/19 09:19:06;;;;;;;13.50;1.80;;;;;;;17.35;33.61;99520.56;25157;1313;3057787;-64
2022/05/19 09:21:38;;;;;;;8.30;1.70;;;;;;;17.53;33.78;99518.30;25099;1313;3047819;-65
2022/05/19 09:24:10;;;;;;;10.10;1.70;;;;;;;17.50;33.01;99520.84;25106;1313;3026804;-65
2022/05/19 09:26:52;;;;;;;11.10;1.60;;;;;;;17.41;32.89;99524.83;25127;1313;3054076;-63
2022/05/19 09:29:45;;;;;;;5.70;1.50;;;;;;;17.30;32.36;99524.42;25118;1313;3069145;-62
2022/05/19 09:32:27;;;;;;;5.10;1.90;;;;;;;17.33;32.05;99517.08;25154;1313;3049015;-63
2022/05/19 09:35:15;;;;;;;2.10;1.30;;;;;;;17.37;32.08;99509.61;25137;1313;3054005;-64
2022/05/19 09:37:45;;;;;;;7.30;1.60;;;;;;;17.60;31.85;99511.85;25068;1313;3055123;-64
2022/05/19 09:40:25;;;;;;;8.70;2.00;;;;;;;17.64;31.92;99512.23;25145;1313;3026421;-64
2022/05/19 09:42:58;;;;;;;1.90;1.40;;;;;;;17.70;32.19;99510.62;25183;1313;3049862;-64
2022/05/19 09:45:28;;;;;;;5.10;1.70;;;;;;;17.97;32.14;99514.27;25075;1312;3026345;-63
2022/05/19 09:48:03;;;;;;;6.40;1.30;;;;;;;18.22;31.62;99509.15;25120;1313;3028009;-62
2022/05/19 09:50:46;;;;;;;2.70;1.10;;;;;;;18.41;31.52;99513.55;25105;1313;3027074;-63
2022/05/19 09:53:25;;;;;;;4.00;1.20;;;;;;;18.22;31.83;99521.16;25106;1313;3048936;-62
2022/05/19 09:56:04;;;;;;;6.50;1.70;;;;;;;18.10;32.92;99520.11;25088;1313;3052558;-64
2022/05/19 09:58:36;;;;;;;8.30;2.00;;;;;;;18.05;32.99;99523.46;25080;1313;3052505;-65
2022/05/19 10:01:08;;;;;;;6.50;1.50;;;;;;;17.93;32.76;99521.55;25081;1316;3026550;-62
2022/05/19 10:03:59;;;;;;;3.80;1.50;;;;;;;17.87;32.36;99525.76;25047;1316;3026274;-63
2022/05/19 10:06:34;;;;;;;10.20;1.30;;;;;;;17.75;32.52;99522.35;25143;1313;3052980;-63
2022/05/19 10:09:13;;;;;;;8.70;2.20;;;;;;;17.79;32.53;99516.86;25070;1313;3050354;-62
2022/05/19 10:11:54;;;;;;;5.40;1.40;;;;;;;17.68;32.45;99517.00;25058;1313;3071551;-64
2022/05/19 10:14:30;;;;;;;5.80;1.70;;;;;;;17.96;32.04;99513.83;25085;1313;3051444;-64
2022/05/19 10:17:24;;;;;;;7.40;1.50;;;;;;;17.80;32.91;99514.83;25103;1313;3052750;-63
2022/05/19 10:20:06;;;;;;;2.00;1.30;;;;;;;17.72;33.37;99513.39;25090;1313;3054756;-62
2022/05/19 10:23:20;;;;;;;7.10;1.80;;;;;;;17.65;33.58;99519.92;25090;1313;3059413;-62
2022/05/19 10:26:15;;;;;;;9.00;1.80;;;;;;;17.46;34.87;99527.46;24992;1321;3050215;-62
2022/05/19 10:32:29;;;;;;;7.20;2.40;;;;;;;17.21;37.72;99542.36;25105;1315;3056408;-61
2022/05/19 10:35:17;;;;;;;12.70;2.10;;;;;;;16.98;38.20;99527.73;25068;1316;3071245;-62
2022/05/19 10:37:51;;;;;;;5.40;2.10;;;;;;;17.00;38.38;99538.89;25132;1314;3049309;-64
2022/05/19 10:40:31;;;;;;;9.60;2.00;;;;;;;16.91;38.25;99533.57;25053;1316;3026792;-61
2022/05/19 10:43:04;;;;;;;8.90;2.40;;;;;;;16.89;38.63;99529.84;25076;1313;3055426;-62
2022/05/19 10:45:38;;;;;;;6.20;1.90;;;;;;;16.96;38.37;99530.50;25069;1315;3026603;-61
2022/05/19 10:48:32;;;;;;;6.70;1.70;;;;;;;16.95;37.83;99536.64;25109;1315;3049735;-63
2022/05/19 10:51:07;;;;;;;;;;;;;;;16.95;37.85;99532.69;25099;1313;3053740;-63
2022/05/19 10:53:59;;;;;;;10.80;2.20;;;;;;;16.91;37.74;99539.61;25080;1315;3054016;-61
2022/05/19 10:56:37;;;;;;;6.50;1.90;;;;;;;16.94;37.71;99537.39;25144;1313;3069530;-63
2022/05/19 10:59:12;;;;;;;5.70;2.10;;;;;;;16.86;37.30;99537.05;25079;1315;3049413;-62
2022/05/19 11:01:50;;;;;;;7.90;1.90;;;;;;;16.73;37.36;99535.80;25122;1313;3054963;-63
2022/05/19 11:04:43;;;;;;;9.20;1.90;;;;;;;16.74;37.27;99536.65;25123;1314;3052563;-62
2022/05/19 11:07:49;;;;;;;6.20;1.90;;;;;;;16.70;37.41;99535.03;25118;1313;3059474;-62
2022/05/19 11:10:38;;;;;;;6.40;1.60;;;;;;;16.91;37.64;99538.91;25063;1315;3050303;-62
2022/05/19 11:13:20;;;;;;;8.30;2.30;;;;;;;17.22;37.43;99531.86;25073;1313;3055766;-64
2022/05/19 11:15:58;;;;;;;7.90;1.90;;;;;;;17.45;36.92;99533.16;25098;1313;3055018;-64
2022/05/19 11:18:29;;;;;;;7.00;1.60;;;;;;;17.59;36.74;99533.74;25114;1313;3069907;-61
2022/05/19 11:21:06;;;;;;;5.90;1.70;;;;;;;17.60;36.74;99535.77;25157;1313;3030036;-62
2022/05/19 11:24:03;;;;;;;4.60;1.60;;;;;;;17.69;36.59;99532.55;25114;1313;3051416;-62
2022/05/19 11:26:50;;;;;;;3.60;1.50;;;;;;;18.01;36.00;99530.73;25131;1313;3052862;-63
2022/05/19 11:29:24;;;;;;;3.40;1.60;;;;;;;18.25;35.23;99528.84;25147;1313;3057693;-61
2022/05/19 11:32:01;;;;;;;5.90;2.20;;;;;;;18.09;35.38;99525.52;25092;1313;3049967;-65
2022/05/19 11:35:09;;;;;;;12.80;2.60;;;;;;;18.10;35.59;99531.52;25079;1313;3053195;-61
2022/05/19 11:37:55;;;;;;;6.30;2.90;;;;;;;18.09;35.78;99526.04;25150;1313;3052621;-60
2022/05/19 11:40:47;;;;;;;8.60;2.80;;;;;;;17.97;35.95;99527.93;25047;1313;3070986;-61
2022/05/19 11:43:21;;;;;;;7.40;2.20;;;;;;;17.92;35.67;99533.42;25089;1313;3049672;-63
2022/05/19 11:46:00;;;;;;;5.20;1.70;;;;;;;17.86;35.88;99533.47;25083;1313;3054523;-62
2022/05/19 11:55:17;;;;;;;6.60;2.00;;;;;;;17.74;35.43;99526.23;25055;1313;3050117;-61
2022/05/19 11:58:11;;;;;;;7.00;2.00;;;;;;;17.87;35.44;99523.80;25183;1313;3053383;-63
2022/05/19 12:00:50;;;;;;;4.50;2.00;;;;;;;18.01;35.67;99519.90;25147;1313;3054416;-62
2022/05/19 12:03:35;;;;;;;7.10;2.00;;;;;;;17.93;35.28;99516.73;25056;1313;3071184;-62
2022/05/19 12:06:16;;;;;;;5.30;2.30;;;;;;;18.01;35.23;99516.52;25140;1313;3049218;-62